Time,TemperatureF,DewpointF,PressureIn,WindDirection,WindDirectionDegrees,WindSpeedMPH,WindSpeedGustMPH,Humidity,HourlyPrecipIn,Conditions,Clouds,dailyrainin,SoftwareType,DateUTC
2013-04-17 12:42:00,45.0,25.0,-100.00,North,0,9.0,18.0,46,-99.99,,,-99.99,,2013-04-17 19:42:00,
2013-04-17 12:52:00,45.0,25.0,-100.00,North,0,9.0,18.0,46,-99.99,,,-99.99,,2013-04-17 19:52:00,
2013-04-17 13:02:00,45.0,24.0,-100.00,WNW,295,11.0,21.0,44,-99.99,,,-99.99,,2013-04-17 20:02:00,
2013-04-17 13:12:00,46.0,25.0,-100.00,North,0,8.0,21.0,43,-99.99,,,-99.99,,2013-04-17 20:12:00,
2013-04-17 13:21:00,46.0,25.0,-100.00,North,0,8.0,21.0,43,-99.99,,,-99.99,,2013-04-17 20:21:00,
2013-04-17 13:32:00,46.0,25.0,-100.00,North,0,8.0,21.0,43,-99.99,,,-99.99,,2013-04-17 20:32:00,
2013-04-17 13:42:00,45.0,24.0,-100.00,WNW,295,8.0,22.0,43,-99.99,,,-99.99,,2013-04-17 20:42:00,
2013-04-17 13:52:00,46.0,24.0,-100.00,WNW,290,8.0,21.0,41,-99.99,,,-99.99,,2013-04-17 20:52:00,
2013-04-17 14:02:00,46.0,24.0,-100.00,WNW,290,8.0,21.0,41,-99.99,,,-99.99,,2013-04-17 21:02:00,
2013-04-17 14:12:00,48.0,25.0,-100.00,WNW,295,7.0,21.0,40,-99.99,,,-99.99,,2013-04-17 21:12:00,
2013-04-17 14:22:00,47.0,24.0,-100.00,North,0,9.0,17.0,40,-99.99,,,-99.99,,2013-04-17 21:22:00,
2013-04-17 14:32:00,47.0,24.0,-100.00,North,0,9.0,17.0,40,-99.99,,,-99.99,,2013-04-17 21:32:00,
2013-04-17 14:42:00,49.0,25.0,-100.00,WNW,290,6.0,19.0,39,-99.99,,,-99.99,,2013-04-17 21:42:00,
2013-04-17 14:53:00,49.0,25.0,-100.00,NE,35,6.0,14.0,38,-99.99,,,-99.99,,2013-04-17 21:53:00,
2013-04-17 15:02:00,49.0,25.0,-100.00,NE,35,6.0,14.0,38,-99.99,,,-99.99,,2013-04-17 22:02:00,
2013-04-17 15:12:00,50.0,24.0,-100.00,NNW,340,7.0,21.0,37,-99.99,,,-99.99,,2013-04-17 22:12:00,
2013-04-17 15:22:00,49.0,24.0,-100.00,NW,320,9.0,19.0,37,-99.99,,,-99.99,,2013-04-17 22:22:00,
2013-04-17 15:33:00,49.0,24.0,-100.00,NW,320,9.0,19.0,37,-99.99,,,-99.99,,2013-04-17 22:33:00,
2013-04-17 15:42:00,50.0,25.0,-100.00,North,0,6.0,18.0,37,-99.99,,,-99.99,,2013-04-17 22:42:00,
2013-04-17 15:52:00,51.0,25.0,-100.00,NW,305,7.0,17.0,36,-99.99,,,-99.99,,2013-04-17 22:52:00,
2013-04-17 16:02:00,51.0,25.0,-100.00,NW,305,7.0,17.0,36,-99.99,,,-99.99,,2013-04-17 23:02:00,
2013-04-17 16:12:00,50.0,24.0,-100.00,North,5,8.0,19.0,36,-99.99,,,-99.99,,2013-04-17 23:12:00,
2013-04-17 16:22:00,53.0,26.0,-100.00,North,0,9.0,19.0,35,-99.99,,,-99.99,,2013-04-17 23:22:00,
2013-04-17 16:32:00,53.0,26.0,-100.00,North,0,9.0,19.0,35,-99.99,,,-99.99,,2013-04-17 23:32:00,
2013-04-17 16:42:00,52.0,25.0,-100.00,NNW,330,11.0,21.0,35,-99.99,,,-99.99,,2013-04-17 23:42:00,
2013-04-17 16:52:00,52.0,24.0,-100.00,NW,325,7.0,17.0,34,-99.99,,,-99.99,,2013-04-17 23:52:00,
2013-04-17 17:02:00,52.0,24.0,-100.00,NW,325,7.0,17.0,34,-99.99,,,-99.99,,2013-04-18 00:02:00,
2013-04-17 17:12:00,52.0,25.0,-100.00,North,0,10.0,17.0,34,-99.99,,,-99.99,,2013-04-18 00:12:00,
2013-04-17 17:22:00,52.0,24.0,-100.00,North,0,12.0,18.0,33,-99.99,,,-99.99,,2013-04-18 00:22:00,
2013-04-17 17:32:00,52.0,24.0,-100.00,North,0,12.0,18.0,33,-99.99,,,-99.99,,2013-04-18 00:32:00,
2013-04-17 17:42:00,52.0,24.0,-100.00,North,0,12.0,18.0,33,-99.99,,,-99.99,,2013-04-18 00:42:00,
2013-04-17 17:52:00,52.0,23.0,-100.00,NW,325,7.0,16.0,32,-99.99,,,-99.99,,2013-04-18 00:52:00,
2013-04-17 18:02:00,52.0,23.0,-100.00,NW,325,7.0,16.0,32,-99.99,,,-99.99,,2013-04-18 01:02:00,
2013-04-17 18:12:00,52.0,23.0,-100.00,NNW,330,9.0,19.0,32,-99.99,,,-99.99,,2013-04-18 01:12:00,
2013-04-17 18:22:00,51.0,23.0,-100.00,NW,325,9.0,22.0,32,-99.99,,,-99.99,,2013-04-18 01:22:00,
2013-04-17 18:32:00,51.0,23.0,-100.00,NW,325,9.0,22.0,32,-99.99,,,-99.99,,2013-04-18 01:32:00,
2013-04-17 18:42:00,52.0,23.0,-100.00,NNW,335,11.0,22.0,32,-99.99,,,-99.99,,2013-04-18 01:42:00,
2013-04-17 18:50:00,49.0,24.0,-100.00,North,0,12.0,22.0,38,-99.99,,,-99.99,,2013-04-18 01:50:00,
2013-04-17 18:52:00,52.0,23.0,-100.00,NNW,335,11.0,22.0,32,-99.99,,,-99.99,,2013-04-18 01:52:00,
2013-04-17 19:02:00,52.0,23.0,-100.00,NNW,335,11.0,22.0,32,-99.99,,,-99.99,,2013-04-18 02:02:00,
2013-04-17 19:12:00,50.0,24.0,-100.00,NNW,330,12.0,22.0,36,-99.99,,,-99.99,,2013-04-18 02:12:00,
2013-04-17 19:22:00,49.0,24.0,-100.00,North,0,12.0,22.0,38,-99.99,,,-99.99,,2013-04-18 02:22:00,
2013-04-17 19:32:00,49.0,24.0,-100.00,North,0,12.0,22.0,38,-99.99,,,-99.99,,2013-04-18 02:32:00,
2013-04-17 19:42:00,49.0,24.0,-100.00,North,0,12.0,22.0,38,-99.99,,,-99.99,,2013-04-18 02:42:00,
2013-04-17 20:02:00,47.0,23.0,-100.00,North,0,9.0,18.0,38,-99.99,,,-99.99,,2013-04-18 03:02:00,
2013-04-17 20:12:00,47.0,24.0,-100.00,NW,315,8.0,19.0,40,-99.99,,,-99.99,,2013-04-18 03:12:00,
2013-04-17 20:22:00,46.0,24.0,-100.00,WNW,300,6.0,13.0,42,-99.99,,,-99.99,,2013-04-18 03:22:00,
2013-04-17 20:33:00,46.0,24.0,-100.00,WNW,300,6.0,13.0,42,-99.99,,,-99.99,,2013-04-18 03:33:00,
2013-04-17 20:43:00,45.0,24.0,-100.00,WNW,295,3.0,11.0,43,-99.99,,,-99.99,,2013-04-18 03:43:00,
2013-04-17 20:53:00,44.0,24.0,-100.00,WNW,295,4.0,15.0,45,-99.99,,,-99.99,,2013-04-18 03:53:00,
2013-04-17 21:03:00,44.0,24.0,-100.00,WNW,295,4.0,15.0,45,-99.99,,,-99.99,,2013-04-18 04:03:00,
2013-04-17 21:13:00,43.0,24.0,-100.00,WNW,300,4.0,13.0,46,-99.99,,,-99.99,,2013-04-18 04:13:00,
2013-04-17 21:23:00,43.0,24.0,-100.00,NNW,340,2.0,9.0,48,-99.99,,,-99.99,,2013-04-18 04:23:00,
2013-04-17 21:33:00,43.0,24.0,-100.00,NNW,340,2.0,9.0,48,-99.99,,,-99.99,,2013-04-18 04:33:00,
2013-04-17 21:43:00,42.0,25.0,-100.00,NNW,335,6.0,11.0,50,-99.99,,,-99.99,,2013-04-18 04:43:00,
2013-04-17 21:52:00,42.0,25.0,-100.00,NNW,335,10.0,16.0,50,-99.99,,,-99.99,,2013-04-18 04:52:00,
2013-04-17 22:02:00,42.0,25.0,-100.00,NNW,335,10.0,16.0,50,-99.99,,,-99.99,,2013-04-18 05:02:00,
2013-04-17 22:12:00,42.0,25.0,-100.00,NNW,335,8.0,18.0,50,-99.99,,,-99.99,,2013-04-18 05:12:00,
2013-04-17 22:22:00,42.0,25.0,-100.00,NNW,330,9.0,14.0,51,-99.99,,,-99.99,,2013-04-18 05:22:00,
2013-04-17 22:32:00,42.0,25.0,-100.00,NNW,330,9.0,14.0,51,-99.99,,,-99.99,,2013-04-18 05:32:00,
2013-04-17 22:42:00,41.0,25.0,-100.00,NNW,340,9.0,14.0,52,-99.99,,,-99.99,,2013-04-18 05:42:00,
2013-04-17 22:52:00,42.0,26.0,-100.00,NNW,340,11.0,17.0,53,-99.99,,,-99.99,,2013-04-18 05:52:00,
2013-04-17 23:02:00,42.0,26.0,-100.00,NNW,340,11.0,17.0,53,-99.99,,,-99.99,,2013-04-18 06:02:00,
2013-04-17 23:12:00,41.0,25.0,-100.00,NNW,345,7.0,13.0,54,-99.99,,,-99.99,,2013-04-18 06:12:00,
2013-04-17 23:22:00,40.0,26.0,-100.00,NNW,345,7.0,14.0,57,-99.99,,,-99.99,,2013-04-18 06:22:00,
2013-04-17 23:32:00,40.0,26.0,-100.00,NNW,345,7.0,14.0,57,-99.99,,,-99.99,,2013-04-18 06:32:00,
2013-04-17 23:42:00,40.0,27.0,-100.00,NNW,335,8.0,14.0,58,-99.99,,,-99.99,,2013-04-18 06:42:00,
2013-04-17 23:52:00,40.0,27.0,-100.00,NNW,345,9.0,14.0,59,-99.99,,,-99.99,,2013-04-18 06:52:00,